Search for airport 
image banner adimage banner adimage banner ad
image banner ad

NV22 - Red Rock Ranch

Located in Elko, United States

ICAO - NV22, IATA -

Data provided by Airmate  

General information

Coordinates: N40°18'46" W115°53'48"
Elevation is 6158 feet MSL.
Magnetic variation is 16° East
View others Airports in Nevada

Operational data

Special qualification required
Current time UTC:
Current local time:
Weather at : KEKO - Elko Rgnl ( 58 km )
METAR: KEKO 092056Z AUTO 25017G22KT 10SM SCT085 17/M07 A3001 RMK AO2 SLP144 T01721067 58020
TAF: KEKO 091721Z 0918/1018 00000KT P6SM SCT180 BKN200 FM092100 34008KT P6SM BKN070 BKN180 FM100000 01010G18KT P6SM SCT080 SCT120 BKN180 FM100300 02007KT P6SM SCT090 BKN180
View NOTAMs / SUP AIP / TFR affecting this airport [VIEW]
Communications frequencies: [VIEW]

Runways:

RWY identifierQFULength (ft)Width (ft)SurfaceLDA (ft)
04180040GRAVEL
22180040GRAVEL

Airport contact information

Address: Elko United States

Satellite view of NV22